Lake Orion, Michigan
Current Conditions -  °F | °C
As of 5:53 AM on Thursday 23 Oct 2014 (Local Time) from KPTK Reporting Station
Clear Clear  
Wind Chill: 35°   Ceiling: Unl
Heat Index: 35°   Visibility: 10mi
Dew Point: 32°   Wind: 3mph
Humidity: 89%   Direction: 270°W
Pressure: 30.25"   Gusts: NA
Location:  42.78°N, 83.24°W
Report Text: KPTK 230953Z 27003KT 10SM CLR 02/00 A3025 RMK AO2 SLP248 FIRST AUGMENTED OBS OF THE DAY T00170000
Loading
Personal Weather Stations






























Interactive Weather Map
Tropical Storm Tracking
New forecast layout! Learn more

10-Day Weather Forecast

Advertisements
Track Severe Weather on mobile